createdAt,value
2018-12-09T00:01:38.933Z,98017.59
2018-12-09T00:04:09.178Z,98013.88
2018-12-09T00:06:37.514Z,98017.84
2018-12-09T00:09:06.613Z,97989.87
2018-12-09T00:11:35.111Z,98011.63
2018-12-09T00:14:03.947Z,97995.49
2018-12-09T00:16:32.791Z,98017.37
2018-12-09T00:19:03.087Z,97996.20
2018-12-09T00:21:33.219Z,97972.90
2018-12-09T00:24:01.908Z,97952.27
2018-12-09T00:26:30.227Z,97915.57
2018-12-09T00:28:58.982Z,97891.83
2018-12-09T00:31:27.564Z,97897.23
2018-12-09T00:33:55.912Z,97897.47
2018-12-09T00:36:24.275Z,97890.03
2018-12-09T00:38:52.663Z,97894.63
2018-12-09T00:41:21.099Z,97893.94
2018-12-09T00:43:49.450Z,97895.11
2018-12-09T00:46:17.763Z,97891.28
2018-12-09T00:48:46.144Z,97885.88
2018-12-09T00:51:14.477Z,97878.66
2018-12-09T00:53:42.884Z,97865.89
2018-12-09T00:56:11.212Z,97859.06
2018-12-09T00:58:39.633Z,97854.98
2018-12-09T01:01:08.109Z,97835.22
2018-12-09T01:03:36.601Z,97819.40
2018-12-09T01:06:07.616Z,97819.17
2018-12-09T01:08:38.611Z,97809.38
2018-12-09T01:11:09.811Z,97801.77
2018-12-09T01:13:40.125Z,97794.72
2018-12-09T01:16:10.266Z,97787.63
2018-12-09T01:18:38.764Z,97784.49
2018-12-09T01:21:07.107Z,97775.33
2018-12-09T01:23:35.531Z,97772.03
2018-12-09T01:26:03.932Z,97763.08
2018-12-09T01:28:32.262Z,97736.87
2018-12-09T01:31:05.067Z,97748.98
2018-12-09T01:33:34.141Z,97733.58
2018-12-09T01:36:02.575Z,97727.38
2018-12-09T01:38:31.219Z,97713.17
2018-12-09T01:41:00.037Z,97701.42
2018-12-09T01:43:28.371Z,97702.59
2018-12-09T01:45:56.810Z,97713.36
2018-12-09T01:48:25.171Z,97701.70
2018-12-09T01:50:53.721Z,97701.70
2018-12-09T01:56:25.959Z,97694.08
2018-12-09T01:58:54.344Z,97690.17
2018-12-09T02:01:22.721Z,97690.22
2018-12-09T02:03:51.312Z,97679.69
2018-12-09T02:06:19.655Z,97680.88
2018-12-09T02:08:50.309Z,97669.48
2018-12-09T02:11:19.063Z,97669.27
2018-12-09T02:13:49.497Z,97660.03
2018-12-09T02:16:18.179Z,97644.35
2018-12-09T02:18:48.263Z,97654.30
2018-12-09T02:21:16.575Z,97654.37
2018-12-09T02:23:45.031Z,97644.39
2018-12-09T02:26:13.346Z,97632.39
2018-12-09T02:28:42.075Z,97638.63
2018-12-09T02:31:10.430Z,97635.88
2018-12-09T02:33:38.829Z,97629.66
2018-12-09T02:36:07.152Z,97629.66
2018-12-09T02:38:35.591Z,97628.13
2018-12-09T02:41:04.465Z,97633.80
2018-12-09T02:43:32.786Z,97647.63
2018-12-09T02:46:01.132Z,97636.48
2018-12-09T02:48:29.691Z,97623.80
2018-12-09T02:50:58.168Z,97631.37
2018-12-09T02:53:26.667Z,97631.80
2018-12-09T02:55:55.088Z,97632.03
2018-12-09T02:58:23.416Z,97622.45
2018-12-09T03:00:51.778Z,97624.00
2018-12-09T03:03:20.534Z,97608.76
2018-12-09T03:05:48.886Z,97609.74
2018-12-09T03:08:18.032Z,97599.95
2018-12-09T03:10:46.392Z,97597.70
2018-12-09T03:13:14.920Z,97608.30
2018-12-09T03:15:43.284Z,97601.61
2018-12-09T03:18:11.615Z,97602.72
2018-12-09T03:20:39.983Z,97604.28
2018-12-09T03:23:08.542Z,97605.95
2018-12-09T03:25:37.552Z,97590.13
2018-12-09T03:28:05.880Z,97605.50
2018-12-09T03:30:34.332Z,97592.36
2018-12-09T03:33:02.735Z,97594.24
2018-12-09T03:35:31.143Z,97590.02
2018-12-09T03:37:59.747Z,97584.44
2018-12-09T03:40:28.107Z,97600.03
2018-12-09T03:42:56.512Z,97587.24
2018-12-09T03:45:24.906Z,97584.44
2018-12-09T03:47:53.212Z,97580.54
2018-12-09T03:50:21.627Z,97574.97
2018-12-09T03:52:49.966Z,97569.63
2018-12-09T03:55:18.445Z,97589.02
2018-12-09T03:57:47.079Z,97562.28
2018-12-09T04:00:17.095Z,97571.88
2018-12-09T04:02:45.420Z,97571.64
2018-12-09T04:05:13.789Z,97567.87
2018-12-09T04:07:42.140Z,97570.19
2018-12-09T04:10:10.550Z,97557.95
2018-12-09T04:12:38.882Z,97562.19
2018-12-09T04:15:07.277Z,97575.03
2018-12-09T04:17:35.580Z,97564.41
2018-12-09T04:20:05.579Z,97562.83
2018-12-09T04:22:34.027Z,97560.23
2018-12-09T04:25:02.358Z,97562.34
2018-12-09T04:27:30.795Z,97557.70
2018-12-09T04:29:59.114Z,97551.45
2018-12-09T04:32:27.494Z,97548.89
2018-12-09T04:34:56.456Z,97559.14
2018-12-09T04:37:24.939Z,97557.56
2018-12-09T04:39:53.552Z,97559.36
2018-12-09T04:42:22.022Z,97560.91
2018-12-09T04:44:50.362Z,97565.81
2018-12-09T04:47:18.676Z,97555.00
2018-12-09T04:49:47.024Z,97564.08
2018-12-09T04:52:15.492Z,97560.44
2018-12-09T04:54:43.895Z,97557.35
2018-12-09T04:57:13.311Z,97589.64
2018-12-09T04:59:45.927Z,97572.84
2018-12-09T05:02:14.338Z,97599.80
2018-12-09T05:04:42.840Z,97610.88
2018-12-09T05:07:11.367Z,97606.08
2018-12-09T05:09:40.017Z,97603.94
2018-12-09T05:12:08.601Z,97605.13
2018-12-09T05:14:36.899Z,97612.56
2018-12-09T05:17:05.295Z,97599.13
2018-12-09T05:19:33.664Z,97600.18
2018-12-09T05:22:02.066Z,97599.42
2018-12-09T05:24:30.411Z,97604.20
2018-12-09T05:26:58.752Z,97606.39
2018-12-09T05:29:27.087Z,97609.92
2018-12-09T05:31:55.443Z,97616.83
2018-12-09T05:34:23.841Z,97621.59
2018-12-09T05:36:52.225Z,97614.77
2018-12-09T05:39:20.565Z,97618.98
2018-12-09T05:41:49.021Z,97621.30
2018-12-09T05:44:18.049Z,97629.28
2018-12-09T05:46:46.530Z,97632.25
2018-12-09T05:49:15.249Z,97652.78
2018-12-09T05:51:43.601Z,97646.95
2018-12-09T05:54:12.005Z,97651.66
2018-12-09T05:56:40.751Z,97649.70
2018-12-09T05:59:09.095Z,97651.59
2018-12-09T06:01:37.416Z,97656.53
2018-12-09T06:04:08.660Z,97656.39
2018-12-09T06:06:37.089Z,97661.34
2018-12-09T06:09:05.772Z,97651.55
2018-12-09T06:11:34.167Z,97648.63
2018-12-09T06:14:02.616Z,97661.42
2018-12-09T06:16:30.946Z,97658.20
2018-12-09T06:18:59.456Z,97659.16
2018-12-09T06:21:28.348Z,97671.99
2018-12-09T06:23:56.689Z,97675.69
2018-12-09T06:26:25.050Z,97676.08
2018-12-09T06:28:53.473Z,97675.44
2018-12-09T06:31:22.096Z,97667.14
2018-12-09T06:33:50.551Z,97665.89
2018-12-09T06:36:18.865Z,97670.75
2018-12-09T06:38:47.204Z,97687.83
2018-12-09T06:41:15.625Z,97684.84
2018-12-09T06:43:44.286Z,97695.82
2018-12-09T06:46:12.793Z,97705.20
2018-12-09T06:48:41.123Z,97705.27
2018-12-09T06:51:10.291Z,97709.77
2018-12-09T06:53:38.816Z,97715.77
2018-12-09T06:56:08.016Z,97707.41
2018-12-09T06:58:36.399Z,97715.69
2018-12-09T07:01:05.021Z,97708.13
2018-12-09T07:03:33.675Z,97717.73
2018-12-09T07:06:02.104Z,97718.30
2018-12-09T07:08:30.873Z,97717.19
2018-12-09T07:10:59.232Z,97722.36
2018-12-09T07:13:27.567Z,97718.59
2018-12-09T07:15:55.991Z,97725.80
2018-12-09T07:18:24.324Z,97729.64
2018-12-09T07:20:52.989Z,97725.87
2018-12-09T07:23:21.309Z,97730.34
2018-12-09T07:25:49.928Z,97736.70
2018-12-09T07:28:18.385Z,97741.31
2018-12-09T07:30:47.175Z,97750.16
2018-12-09T07:33:15.593Z,97748.97
2018-12-09T07:35:43.970Z,97757.05
2018-12-09T07:38:12.365Z,97758.52
2018-12-09T07:40:40.721Z,97761.44
2018-12-09T07:43:09.054Z,97772.62
2018-12-09T07:45:37.527Z,97765.96
2018-12-09T07:48:05.985Z,97772.70
2018-12-09T07:50:34.414Z,97748.55
2018-12-09T07:53:02.836Z,97759.86
2018-12-09T07:58:12.692Z,97762.66
2018-12-09T08:00:41.075Z,97774.48
2018-12-09T08:03:09.524Z,97781.48
2018-12-09T08:05:41.798Z,97774.17
2018-12-09T08:08:10.123Z,97792.11
2018-12-09T08:10:38.575Z,97785.22
2018-12-09T08:13:06.926Z,97787.54
2018-12-09T08:15:35.408Z,97785.72
2018-12-09T08:18:03.740Z,97798.77
2018-12-09T08:20:32.104Z,97784.25
2018-12-09T08:23:00.722Z,97791.34
2018-12-09T08:25:29.294Z,97805.47
2018-12-09T08:27:57.691Z,97782.49
2018-12-09T08:30:26.138Z,97801.72
2018-12-09T08:32:54.528Z,97775.05
2018-12-09T08:35:22.906Z,97804.42
2018-12-09T08:37:51.754Z,97796.72
2018-12-09T08:40:20.233Z,97794.41
2018-12-09T08:42:48.656Z,97801.86
2018-12-09T08:45:17.019Z,97821.28
2018-12-09T08:47:45.367Z,97801.06
2018-12-09T08:50:13.852Z,97826.55
2018-12-09T08:52:42.401Z,97787.80
2018-12-09T08:55:10.892Z,97798.58
2018-12-09T08:57:39.207Z,97804.80
2018-12-09T09:00:09.150Z,97803.61
2018-12-09T09:02:37.618Z,97805.47
2018-12-09T09:05:06.015Z,97802.73
2018-12-09T09:07:34.335Z,97810.27
2018-12-09T09:10:02.830Z,97817.03
2018-12-09T09:12:31.150Z,97809.91
2018-12-09T09:14:59.797Z,97813.78
2018-12-09T09:17:28.486Z,97808.52
2018-12-09T09:19:56.903Z,97839.20
2018-12-09T09:22:25.700Z,97809.41
2018-12-09T09:24:54.392Z,97817.95
2018-12-09T09:27:22.719Z,97825.22
2018-12-09T09:29:51.908Z,97812.59
2018-12-09T09:32:20.328Z,97818.44
2018-12-09T09:34:49.084Z,97836.08
2018-12-09T09:37:17.501Z,97821.78
2018-12-09T09:39:45.879Z,97827.86
2018-12-09T09:42:14.496Z,97827.94
2018-12-09T09:44:42.859Z,97824.38
2018-12-09T09:47:11.279Z,97832.76
2018-12-09T09:49:39.772Z,97826.35
2018-12-09T09:52:08.356Z,97831.07
2018-12-09T09:54:36.687Z,97821.21
2018-12-09T09:57:05.037Z,97829.90
2018-12-09T09:59:33.400Z,97822.59
2018-12-09T10:02:02.033Z,97826.66
2018-12-09T10:04:30.424Z,97825.83
2018-12-09T10:06:58.887Z,97839.69
2018-12-09T10:09:27.306Z,97824.62
2018-12-09T10:11:55.671Z,97834.06
2018-12-09T10:14:24.108Z,97840.55
2018-12-09T10:16:52.509Z,97834.71
2018-12-09T10:19:20.855Z,97830.59
2018-12-09T10:21:49.272Z,97831.56
2018-12-09T10:24:17.636Z,97847.61
2018-12-09T10:26:46.177Z,97824.17
2018-12-09T10:29:14.541Z,97839.55
2018-12-09T10:31:42.897Z,97862.28
2018-12-09T10:34:11.251Z,97844.94
2018-12-09T10:36:39.857Z,97840.47
2018-12-09T10:39:08.347Z,97839.90
2018-12-09T10:41:36.716Z,97839.34
2018-12-09T10:44:05.143Z,97832.65
2018-12-09T10:46:33.453Z,97842.54
2018-12-09T10:49:01.859Z,97841.16
2018-12-09T10:51:30.425Z,97846.98
2018-12-09T10:53:58.882Z,97841.98
2018-12-09T10:56:27.211Z,97833.87
2018-12-09T10:58:55.534Z,97829.75
2018-12-09T11:01:28.892Z,97827.65
2018-12-09T11:03:57.650Z,97828.84
2018-12-09T11:06:26.022Z,97825.78
2018-12-09T11:08:54.333Z,97838.20
2018-12-09T11:11:22.688Z,97832.13
2018-12-09T11:13:58.062Z,97834.38
2018-12-09T11:16:21.588Z,97833.94
2018-12-09T11:18:50.008Z,97839.27
2018-12-09T11:21:18.476Z,97840.95
2018-12-09T11:23:46.844Z,97817.06
2018-12-09T11:26:15.326Z,97830.41
2018-12-09T11:28:43.861Z,97836.96
2018-12-09T11:31:12.553Z,97836.77
2018-12-09T11:33:40.892Z,97832.55
2018-12-09T11:36:09.256Z,97832.12
2018-12-09T11:38:37.677Z,97840.27
2018-12-09T11:41:06.114Z,97834.97
2018-12-09T11:43:35.113Z,97851.53
2018-12-09T11:46:03.526Z,97842.28
2018-12-09T11:48:32.063Z,97841.83
2018-12-09T11:51:00.403Z,97856.72
2018-12-09T11:53:28.997Z,97830.88
2018-12-09T11:55:57.349Z,97844.75
2018-12-09T11:58:25.731Z,97838.27
2018-12-09T12:00:54.136Z,97841.50
2018-12-09T12:03:22.575Z,97842.17
2018-12-09T12:05:51.090Z,97866.87
2018-12-09T12:08:19.412Z,97846.20
2018-12-09T12:10:47.829Z,97856.91
2018-12-09T12:13:16.270Z,97845.77
2018-12-09T12:15:44.780Z,97847.27
2018-12-09T12:18:13.149Z,97837.02
2018-12-09T12:20:41.630Z,97856.95
2018-12-09T12:23:09.963Z,97849.45
2018-12-09T12:25:38.308Z,97858.61
2018-12-09T12:28:06.632Z,97860.00
2018-12-09T12:30:34.992Z,97855.28
2018-12-09T12:33:03.419Z,97860.70
2018-12-09T12:35:31.800Z,97860.34
2018-12-09T12:38:00.334Z,97869.52
2018-12-09T12:40:28.915Z,97868.52
2018-12-09T12:42:57.428Z,97878.67
2018-12-09T12:45:25.899Z,97866.52
2018-12-09T12:47:54.823Z,97871.09
2018-12-09T12:50:23.248Z,97876.56
2018-12-09T12:52:52.159Z,97885.75
2018-12-09T12:55:20.511Z,97881.62
2018-12-09T12:57:48.843Z,97885.55
2018-12-09T13:00:17.298Z,97900.48
2018-12-09T13:02:45.747Z,97896.27
2018-12-09T13:05:18.619Z,97896.67
2018-12-09T13:07:46.998Z,97902.47
2018-12-09T13:10:15.320Z,97907.81
2018-12-09T13:12:44.381Z,97906.48
2018-12-09T13:15:13.005Z,97918.66
2018-12-09T13:17:41.472Z,97917.33
2018-12-09T13:20:09.802Z,97918.83
2018-12-09T13:22:38.317Z,97929.81
2018-12-09T13:25:06.646Z,97935.63
2018-12-09T13:27:35.063Z,97933.81
2018-12-09T13:30:03.535Z,97933.17
2018-12-09T13:32:31.923Z,97931.06
2018-12-09T13:35:00.288Z,97937.09
2018-12-09T13:37:28.684Z,97932.70
2018-12-09T13:39:57.094Z,97932.14
2018-12-09T13:42:25.556Z,97933.30
2018-12-09T13:44:53.863Z,97945.16
2018-12-09T13:47:22.311Z,97951.88
2018-12-09T13:49:50.918Z,97976.64
2018-12-09T13:52:19.809Z,98015.75
2018-12-09T13:54:48.200Z,98004.16
2018-12-09T13:57:16.501Z,98009.30
2018-12-09T13:59:44.889Z,98025.09
2018-12-09T14:02:13.241Z,98025.52
2018-12-09T14:04:41.643Z,98030.66
2018-12-09T14:07:09.970Z,98024.91
2018-12-09T14:09:38.263Z,98043.94
2018-12-09T14:12:06.827Z,98037.95
2018-12-09T14:14:35.228Z,98036.97
2018-12-09T14:17:03.652Z,98052.00
2018-12-09T14:19:31.968Z,98047.27
2018-12-09T14:22:00.299Z,98047.95
2018-12-09T14:24:28.755Z,98056.48
2018-12-09T14:26:57.064Z,98049.41
2018-12-09T14:29:25.384Z,98059.73
2018-12-09T14:31:53.943Z,98061.12
2018-12-09T14:34:22.243Z,98059.30
2018-12-09T14:36:50.565Z,98063.55
2018-12-09T14:39:18.914Z,98071.11
2018-12-09T14:41:47.211Z,98071.11
2018-12-09T14:44:15.585Z,98079.64
2018-12-09T14:46:44.542Z,98077.27
2018-12-09T14:49:12.857Z,98080.72
2018-12-09T14:51:43.014Z,98089.13
2018-12-09T14:54:11.311Z,98079.94
2018-12-09T14:56:39.695Z,98087.56
2018-12-09T14:59:08.050Z,98088.89
2018-12-09T15:01:36.412Z,98089.97
2018-12-09T15:04:04.723Z,98095.05
2018-12-09T15:06:33.052Z,98104.43
2018-12-09T15:09:01.378Z,98103.09
2018-12-09T15:11:29.778Z,98102.69
2018-12-09T15:13:58.100Z,98103.11
2018-12-09T15:16:26.427Z,98102.02
2018-12-09T15:18:54.735Z,98097.73
2018-12-09T15:21:23.052Z,98106.93
2018-12-09T15:23:51.362Z,98104.63
2018-12-09T15:26:19.688Z,98111.94
2018-12-09T15:28:47.994Z,98121.38
2018-12-09T15:31:16.419Z,98115.25
2018-12-09T15:33:44.737Z,98120.57
2018-12-09T15:36:13.069Z,98134.37
2018-12-09T15:38:41.376Z,98130.02
2018-12-09T15:41:09.702Z,98132.75
2018-12-09T15:43:38.023Z,98134.02
2018-12-09T15:46:06.343Z,98128.69
2018-12-09T15:48:34.720Z,98130.70
2018-12-09T15:51:03.055Z,98132.55
2018-12-09T15:53:31.498Z,98133.66
2018-12-09T15:55:59.807Z,98134.98
2018-12-09T15:58:28.126Z,98136.94
2018-12-09T16:00:56.488Z,98136.19
2018-12-09T16:03:24.954Z,98141.05
2018-12-09T16:05:53.267Z,98139.72
2018-12-09T16:08:21.568Z,98138.85
2018-12-09T16:10:49.890Z,98147.45
2018-12-09T16:13:18.201Z,98157.32
2018-12-09T16:15:46.528Z,98163.55
2018-12-09T16:18:14.841Z,98161.18
2018-12-09T16:20:43.198Z,98164.04
2018-12-09T16:23:11.524Z,98172.19
2018-12-09T16:25:39.902Z,98177.82
2018-12-09T16:28:08.233Z,98172.92
2018-12-09T16:30:36.564Z,98170.68
2018-12-09T16:33:04.883Z,98188.97
2018-12-09T16:35:33.220Z,98180.63
2018-12-09T16:38:01.537Z,98174.74
2018-12-09T16:40:29.931Z,98186.60
2018-12-09T16:42:58.272Z,98180.92
2018-12-09T16:45:26.618Z,98191.08
2018-12-09T16:47:54.928Z,98201.44
2018-12-09T16:50:23.262Z,98193.39
2018-12-09T16:52:51.670Z,98210.05
2018-12-09T16:55:19.988Z,98208.39
2018-12-09T16:57:48.291Z,98210.77
2018-12-09T17:00:16.594Z,98212.39
2018-12-09T17:02:44.936Z,98219.11
2018-12-09T17:05:13.218Z,98224.76
2018-12-09T17:07:42.246Z,98235.70
2018-12-09T17:10:10.855Z,98227.05
2018-12-09T17:12:39.182Z,98232.06
2018-12-09T17:15:07.522Z,98237.33
2018-12-09T17:17:35.847Z,98243.27
2018-12-09T17:20:06.378Z,98254.34
2018-12-09T17:22:34.974Z,98256.78
2018-12-09T17:25:03.499Z,98256.78
2018-12-09T17:27:31.816Z,98258.28
2018-12-09T17:30:00.140Z,98271.25
2018-12-09T17:32:28.543Z,98287.28
2018-12-09T17:34:56.840Z,98274.03
2018-12-09T17:37:25.162Z,98283.09
2018-12-09T17:39:53.486Z,98286.36
2018-12-09T17:42:21.811Z,98291.08
2018-12-09T17:44:50.120Z,98294.84
2018-12-09T17:47:18.443Z,98295.08
2018-12-09T17:49:46.765Z,98302.23
2018-12-09T17:52:15.675Z,98310.70
2018-12-09T17:54:43.992Z,98315.25
2018-12-09T17:57:12.398Z,98318.76
2018-12-09T17:59:40.734Z,98315.31
2018-12-09T18:02:09.054Z,98330.02
2018-12-09T18:04:37.361Z,98340.67
2018-12-09T18:07:05.880Z,98344.75
2018-12-09T18:09:34.195Z,98351.28
2018-12-09T18:12:02.540Z,98365.77
2018-12-09T18:14:30.971Z,98367.77
2018-12-09T18:17:01.189Z,98368.39
2018-12-09T18:19:30.118Z,98375.14
2018-12-09T18:21:58.806Z,98370.21
2018-12-09T18:24:28.371Z,98373.19
2018-12-09T18:26:56.737Z,98373.42
2018-12-09T18:29:25.083Z,98381.17
2018-12-09T18:31:53.448Z,98378.64
2018-12-09T18:34:22.147Z,98387.13
2018-12-09T18:36:50.568Z,98389.73
2018-12-09T18:39:19.106Z,98384.36
2018-12-09T18:41:47.885Z,98395.01
2018-12-09T18:44:16.332Z,98396.83
2018-12-09T18:46:44.861Z,98398.04
2018-12-09T18:49:13.287Z,98389.27
2018-12-09T18:51:41.587Z,98405.20
2018-12-09T18:54:10.004Z,98411.82
2018-12-09T18:56:38.343Z,98414.88
2018-12-09T18:59:06.908Z,98420.30
2018-12-09T19:01:35.196Z,98425.40
2018-12-09T19:04:03.617Z,98423.28
2018-12-09T19:06:32.608Z,98424.84
2018-12-09T19:09:01.395Z,98433.07
2018-12-09T19:11:30.067Z,98433.44
2018-12-09T19:14:00.361Z,98444.66
2018-12-09T19:16:28.867Z,98448.25
2018-12-09T19:18:57.212Z,98435.37
2018-12-09T19:21:25.548Z,98440.78
2018-12-09T19:23:54.050Z,98449.60
2018-12-09T19:26:22.919Z,98456.57
2018-12-09T19:28:51.261Z,98460.56
2018-12-09T19:31:19.723Z,98464.60
2018-12-09T19:33:48.161Z,98471.75
2018-12-09T19:36:16.594Z,98484.20
2018-12-09T19:38:45.037Z,98489.84
2018-12-09T19:41:13.506Z,98495.16
2018-12-09T19:43:41.890Z,98497.31
2018-12-09T19:46:10.224Z,98498.42
2018-12-09T19:48:38.577Z,98499.28
2018-12-09T19:51:06.901Z,98504.43
2018-12-09T19:53:35.458Z,98521.64
2018-12-09T19:56:04.519Z,98509.95
2018-12-09T19:58:33.187Z,98527.88
2018-12-09T20:01:02.564Z,98535.62
2018-12-09T20:03:31.014Z,98535.75
2018-12-09T20:05:59.337Z,98550.03
2018-12-09T20:08:27.768Z,98545.39
2018-12-09T20:10:56.100Z,98541.98
2018-12-09T20:13:25.598Z,98544.14
2018-12-09T20:15:54.125Z,98553.75
2018-12-09T20:18:22.459Z,98549.26
2018-12-09T20:20:50.987Z,98562.00
2018-12-09T20:23:20.232Z,98569.98
2018-12-09T20:25:48.677Z,98572.13
2018-12-09T20:28:17.211Z,98576.63
2018-12-09T20:30:45.558Z,98589.95
2018-12-09T20:33:13.920Z,98588.32
2018-12-09T20:35:42.292Z,98598.41
2018-12-09T20:38:10.702Z,98603.53
2018-12-09T20:40:39.165Z,98591.83
2018-12-09T20:43:07.563Z,98601.65
2018-12-09T20:45:35.916Z,98598.99
2018-12-09T20:48:13.240Z,98622.95
2018-12-09T20:50:35.372Z,98615.05
2018-12-09T20:53:03.928Z,98610.84
2018-12-09T20:55:32.290Z,98625.98
2018-12-09T20:58:00.679Z,98637.73
2018-12-09T21:00:29.015Z,98632.18
2018-12-09T21:02:57.609Z,98643.69
2018-12-09T21:05:26.292Z,98658.82
2018-12-09T21:07:54.697Z,98667.13
2018-12-09T21:10:23.199Z,98677.31
2018-12-09T21:12:51.546Z,98675.87
2018-12-09T21:15:20.098Z,98679.24
2018-12-09T21:17:48.521Z,98666.88
2018-12-09T21:20:16.867Z,98674.65
2018-12-09T21:22:45.287Z,98675.49
2018-12-09T21:25:13.764Z,98675.78
2018-12-09T21:27:42.309Z,98673.97
2018-12-09T21:30:10.757Z,98686.17
2018-12-09T21:32:39.217Z,98685.39
2018-12-09T21:35:07.759Z,98680.63
2018-12-09T21:37:36.323Z,98686.46
2018-12-09T21:40:06.377Z,98682.22
2018-12-09T21:42:34.784Z,98693.38
2018-12-09T21:45:03.311Z,98692.27
2018-12-09T21:47:31.671Z,98695.69
2018-12-09T21:50:00.026Z,98699.65
2018-12-09T21:52:28.404Z,98704.67
2018-12-09T21:54:56.731Z,98717.14
2018-12-09T21:57:25.049Z,98709.11
2018-12-09T21:59:53.435Z,98719.13
2018-12-09T22:02:22.047Z,98726.77
2018-12-09T22:04:50.396Z,98729.94
2018-12-09T22:07:18.747Z,98730.17
2018-12-09T22:09:47.156Z,98729.83
2018-12-09T22:12:15.531Z,98726.86
2018-12-09T22:14:44.001Z,98731.56
2018-12-09T22:17:12.579Z,98738.19
2018-12-09T22:19:41.015Z,98743.74
2018-12-09T22:22:09.351Z,98742.41
2018-12-09T22:24:37.754Z,98740.79
2018-12-09T22:27:06.339Z,98741.55
2018-12-09T22:29:34.725Z,98744.19
2018-12-09T22:32:03.039Z,98755.31
2018-12-09T22:34:31.482Z,98754.25
2018-12-09T22:36:59.848Z,98770.47
2018-12-09T22:39:28.349Z,98758.23
2018-12-09T22:41:56.686Z,98771.58
2018-12-09T22:44:25.015Z,98775.29
2018-12-09T22:46:54.081Z,98784.91
2018-12-09T22:49:22.571Z,98787.55
2018-12-09T22:51:51.691Z,98785.40
2018-12-09T22:54:20.772Z,98783.84
2018-12-09T22:56:49.099Z,98788.08
2018-12-09T22:59:18.207Z,98788.08
2018-12-09T23:01:48.680Z,98785.98
2018-12-09T23:04:18.025Z,98808.31
2018-12-09T23:06:46.559Z,98816.28
2018-12-09T23:09:15.046Z,98826.92
2018-12-09T23:11:46.188Z,98821.91
2018-12-09T23:14:17.676Z,98828.60
2018-12-09T23:16:48.324Z,98835.51
2018-12-09T23:19:16.912Z,98827.30
2018-12-09T23:21:45.395Z,98827.52
2018-12-09T23:24:13.767Z,98836.23
2018-12-09T23:26:42.095Z,98833.09
2018-12-09T23:29:10.515Z,98830.66
2018-12-09T23:31:40.124Z,98838.88
2018-12-09T23:34:08.551Z,98841.80
2018-12-09T23:36:36.894Z,98838.86
2018-12-09T23:39:06.028Z,98839.38
2018-12-09T23:41:34.462Z,98850.00
2018-12-09T23:44:02.885Z,98863.83
2018-12-09T23:46:31.228Z,98852.95
2018-12-09T23:48:59.625Z,98855.84
2018-12-09T23:51:28.032Z,98861.47
2018-12-09T23:53:56.479Z,98870.19
2018-12-09T23:56:24.960Z,98861.17
2018-12-09T23:58:53.370Z,98865.45
